KCLL/CLL METAR and TAF weather

Enter ICAO airport designator
Station Type Date Time Source
KCLL METAR 2020/11/28 19:53 UTC NOAA

KCLL 281953Z 07008KT 8SM -RA OVC008 15/14 A3004 RMK AO2 SLP169 P0001 T01500139


Station Type Date Time Source
KCLL Decoded METAR 2020/11/28 19:53 UTC NOAA

COLLEGE STN EASTERWOOD FIELD, TX, United States (KCLL) 30-35N 096-22W 96M
Nov 28, 2020 - 02:53 PM EST / 2020.11.28 1953 UTC
Wind: from the ENE (070 degrees) at 9 MPH (8 KT):0
Visibility: 8 mile(s):0
Sky conditions: overcast
Weather: light rain
Precipitation last hour: 0.01 inches
Temperature: 59.0 F (15.0 C)
Dew Point: 57.0 F (13.9 C)
Relative Humidity: 93%
Pressure (altimeter): 30.04 in. Hg (1017 hPa)
ob: KCLL 281953Z 07008KT 8SM -RA OVC008 15/14 A3004 RMK AO2 SLP169 P0001 T01500139
cycle: 20

Station Type Date Time Source
KCLL TAF 2020/11/28 18:27 UTC NOAA

TAF KCLL 281725Z 2818/2918 05010KT 6SM -RA OVC010
FM290200 04007KT 4SM -SHRA BR OVC005
FM290900 33010KT 4SM BR VCSH OVC006
FM291500 33012KT P6SM BKN015

Example: see airport list